sensor_id;sensor_type;location;lat;lon;timestamp;P1;durP1;ratioP1;P2;durP2;ratioP2
50585;SDS011;36542;51.700;8.846;2022-10-26T00:00:49;7.97;;;4.30;;
50585;SDS011;36542;51.700;8.846;2022-10-26T00:03:14;12.50;;;5.33;;
50585;SDS011;36542;51.700;8.846;2022-10-26T00:05:41;10.93;;;4.97;;
50585;SDS011;36542;51.700;8.846;2022-10-26T00:08:07;7.80;;;4.97;;
50585;SDS011;36542;51.700;8.846;2022-10-26T00:10:33;13.33;;;5.47;;
50585;SDS011;36542;51.700;8.846;2022-10-26T00:12:59;7.43;;;5.30;;
50585;SDS011;36542;51.700;8.846;2022-10-26T00:15:26;13.60;;;5.87;;
50585;SDS011;36542;51.700;8.846;2022-10-26T00:17:51;10.50;;;6.10;;
50585;SDS011;36542;51.700;8.846;2022-10-26T00:20:17;10.20;;;6.53;;
50585;SDS011;36542;51.700;8.846;2022-10-26T00:22:42;10.30;;;6.23;;
50585;SDS011;36542;51.700;8.846;2022-10-26T00:25:08;14.63;;;7.73;;
50585;SDS011;36542;51.700;8.846;2022-10-26T00:27:34;18.87;;;7.67;;
50585;SDS011;36542;51.700;8.846;2022-10-26T00:30:00;15.07;;;7.50;;
50585;SDS011;36542;51.700;8.846;2022-10-26T00:32:26;16.30;;;7.37;;
50585;SDS011;36542;51.700;8.846;2022-10-26T00:34:52;17.90;;;8.50;;
50585;SDS011;36542;51.700;8.846;2022-10-26T00:37:17;15.07;;;8.00;;
50585;SDS011;36542;51.700;8.846;2022-10-26T00:39:43;17.40;;;7.83;;
50585;SDS011;36542;51.700;8.846;2022-10-26T00:42:12;14.47;;;8.87;;
50585;SDS011;36542;51.700;8.846;2022-10-26T00:47:33;17.30;;;9.50;;
50585;SDS011;36542;51.700;8.846;2022-10-26T00:50:07;16.90;;;9.07;;
50585;SDS011;36542;51.700;8.846;2022-10-26T00:52:35;16.63;;;9.40;;
50585;SDS011;36542;51.700;8.846;2022-10-26T00:55:02;18.83;;;11.10;;
50585;SDS011;36542;51.700;8.846;2022-10-26T00:57:29;22.83;;;11.73;;
50585;SDS011;36542;51.700;8.846;2022-10-26T00:59:55;26.07;;;12.43;;
50585;SDS011;36542;51.700;8.846;2022-10-26T01:02:22;25.57;;;13.63;;
50585;SDS011;36542;51.700;8.846;2022-10-26T01:04:48;29.50;;;12.97;;
50585;SDS011;36542;51.700;8.846;2022-10-26T01:07:14;25.17;;;13.03;;
50585;SDS011;36542;51.700;8.846;2022-10-26T01:09:40;30.43;;;14.17;;
50585;SDS011;36542;51.700;8.846;2022-10-26T01:12:06;26.00;;;14.13;;
50585;SDS011;36542;51.700;8.846;2022-10-26T01:14:31;24.40;;;13.17;;
50585;SDS011;36542;51.700;8.846;2022-10-26T01:23:04;26.23;;;13.67;;
50585;SDS011;36542;51.700;8.846;2022-10-26T01:31:11;29.93;;;14.97;;
50585;SDS011;36542;51.700;8.846;2022-10-26T01:33:44;31.47;;;15.97;;
50585;SDS011;36542;51.700;8.846;2022-10-26T01:36:38;27.67;;;15.33;;
50585;SDS011;36542;51.700;8.846;2022-10-26T01:42:18;30.67;;;14.63;;
50585;SDS011;36542;51.700;8.846;2022-10-26T01:44:48;29.83;;;14.80;;
50585;SDS011;36542;51.700;8.846;2022-10-26T01:47:20;31.97;;;15.30;;
50585;SDS011;36542;51.700;8.846;2022-10-26T01:49:48;29.90;;;14.57;;
50585;SDS011;36542;51.700;8.846;2022-10-26T01:52:19;25.07;;;13.80;;
50585;SDS011;36542;51.700;8.846;2022-10-26T01:54:45;25.50;;;13.47;;
50585;SDS011;36542;51.700;8.846;2022-10-26T01:57:11;29.13;;;14.10;;
50585;SDS011;36542;51.700;8.846;2022-10-26T01:59:54;25.03;;;13.33;;
50585;SDS011;36542;51.700;8.846;2022-10-26T02:05:22;26.10;;;12.80;;
50585;SDS011;36542;51.700;8.846;2022-10-26T02:13:14;23.93;;;12.67;;
50585;SDS011;36542;51.700;8.846;2022-10-26T02:15:53;20.57;;;12.07;;
50585;SDS011;36542;51.700;8.846;2022-10-26T02:21:26;22.67;;;11.90;;
50585;SDS011;36542;51.700;8.846;2022-10-26T02:24:00;20.80;;;11.90;;
50585;SDS011;36542;51.700;8.846;2022-10-26T02:26:27;23.63;;;12.07;;
50585;SDS011;36542;51.700;8.846;2022-10-26T02:28:55;25.13;;;13.07;;
50585;SDS011;36542;51.700;8.846;2022-10-26T02:31:24;22.47;;;12.37;;
50585;SDS011;36542;51.700;8.846;2022-10-26T02:33:51;21.47;;;12.17;;
50585;SDS011;36542;51.700;8.846;2022-10-26T02:36:21;24.27;;;12.17;;
50585;SDS011;36542;51.700;8.846;2022-10-26T02:38:50;19.47;;;11.37;;
50585;SDS011;36542;51.700;8.846;2022-10-26T02:41:17;19.10;;;11.87;;
50585;SDS011;36542;51.700;8.846;2022-10-26T02:43:52;23.17;;;11.67;;
50585;SDS011;36542;51.700;8.846;2022-10-26T02:46:24;16.17;;;10.60;;
50585;SDS011;36542;51.700;8.846;2022-10-26T02:48:51;20.10;;;11.70;;
50585;SDS011;36542;51.700;8.846;2022-10-26T02:54:34;25.20;;;13.00;;
50585;SDS011;36542;51.700;8.846;2022-10-26T02:59:41;22.73;;;12.80;;
50585;SDS011;36542;51.700;8.846;2022-10-26T03:02:08;24.60;;;12.10;;
50585;SDS011;36542;51.700;8.846;2022-10-26T03:04:35;18.73;;;11.43;;
50585;SDS011;36542;51.700;8.846;2022-10-26T03:07:01;19.60;;;12.27;;
50585;SDS011;36542;51.700;8.846;2022-10-26T03:09:27;25.73;;;12.57;;
50585;SDS011;36542;51.700;8.846;2022-10-26T03:11:52;20.73;;;12.80;;
50585;SDS011;36542;51.700;8.846;2022-10-26T03:14:18;20.40;;;11.40;;
50585;SDS011;36542;51.700;8.846;2022-10-26T03:16:44;21.53;;;11.30;;
50585;SDS011;36542;51.700;8.846;2022-10-26T03:19:09;23.10;;;11.73;;
50585;SDS011;36542;51.700;8.846;2022-10-26T03:21:35;20.50;;;11.87;;
50585;SDS011;36542;51.700;8.846;2022-10-26T03:24:00;19.90;;;11.30;;
50585;SDS011;36542;51.700;8.846;2022-10-26T03:26:26;20.90;;;12.17;;
50585;SDS011;36542;51.700;8.846;2022-10-26T03:28:51;25.10;;;11.90;;
50585;SDS011;36542;51.700;8.846;2022-10-26T03:31:17;22.00;;;11.70;;
50585;SDS011;36542;51.700;8.846;2022-10-26T03:33:42;20.13;;;12.67;;
50585;SDS011;36542;51.700;8.846;2022-10-26T03:36:08;20.57;;;11.47;;
50585;SDS011;36542;51.700;8.846;2022-10-26T03:38:34;18.90;;;11.63;;
50585;SDS011;36542;51.700;8.846;2022-10-26T03:40:59;22.20;;;10.90;;
50585;SDS011;36542;51.700;8.846;2022-10-26T03:43:25;19.70;;;12.00;;
50585;SDS011;36542;51.700;8.846;2022-10-26T03:45:51;22.37;;;11.40;;
50585;SDS011;36542;51.700;8.846;2022-10-26T03:48:16;24.87;;;12.43;;
50585;SDS011;36542;51.700;8.846;2022-10-26T03:50:42;19.97;;;11.83;;
50585;SDS011;36542;51.700;8.846;2022-10-26T03:53:07;20.10;;;11.03;;
50585;SDS011;36542;51.700;8.846;2022-10-26T03:55:33;17.73;;;10.70;;
50585;SDS011;36542;51.700;8.846;2022-10-26T03:57:58;19.67;;;10.43;;
50585;SDS011;36542;51.700;8.846;2022-10-26T04:00:24;15.77;;;10.47;;
50585;SDS011;36542;51.700;8.846;2022-10-26T04:02:54;20.17;;;11.30;;
50585;SDS011;36542;51.700;8.846;2022-10-26T04:05:22;17.33;;;10.70;;
50585;SDS011;36542;51.700;8.846;2022-10-26T04:07:55;18.57;;;11.63;;
50585;SDS011;36542;51.700;8.846;2022-10-26T04:10:21;19.43;;;10.70;;
50585;SDS011;36542;51.700;8.846;2022-10-26T04:12:48;19.00;;;10.23;;
50585;SDS011;36542;51.700;8.846;2022-10-26T04:15:13;17.87;;;11.27;;
50585;SDS011;36542;51.700;8.846;2022-10-26T04:17:40;17.67;;;10.37;;
50585;SDS011;36542;51.700;8.846;2022-10-26T04:20:06;18.73;;;10.53;;
50585;SDS011;36542;51.700;8.846;2022-10-26T04:22:32;16.77;;;9.67;;
50585;SDS011;36542;51.700;8.846;2022-10-26T04:24:58;19.33;;;9.93;;
50585;SDS011;36542;51.700;8.846;2022-10-26T04:27:23;17.57;;;10.40;;
50585;SDS011;36542;51.700;8.846;2022-10-26T04:29:49;17.10;;;10.67;;
50585;SDS011;36542;51.700;8.846;2022-10-26T04:32:15;16.97;;;9.60;;
50585;SDS011;36542;51.700;8.846;2022-10-26T04:34:40;16.10;;;10.20;;
50585;SDS011;36542;51.700;8.846;2022-10-26T04:37:06;19.70;;;9.53;;
50585;SDS011;36542;51.700;8.846;2022-10-26T04:39:31;21.50;;;10.30;;
50585;SDS011;36542;51.700;8.846;2022-10-26T04:41:57;17.53;;;10.43;;
50585;SDS011;36542;51.700;8.846;2022-10-26T04:44:22;16.83;;;10.43;;
50585;SDS011;36542;51.700;8.846;2022-10-26T04:46:48;17.77;;;10.00;;
50585;SDS011;36542;51.700;8.846;2022-10-26T04:49:13;21.33;;;9.90;;
50585;SDS011;36542;51.700;8.846;2022-10-26T04:51:39;15.37;;;9.43;;
50585;SDS011;36542;51.700;8.846;2022-10-26T04:54:04;16.17;;;9.93;;
50585;SDS011;36542;51.700;8.846;2022-10-26T04:56:30;18.03;;;10.03;;
50585;SDS011;36542;51.700;8.846;2022-10-26T04:58:56;18.23;;;9.13;;
50585;SDS011;36542;51.700;8.846;2022-10-26T05:01:21;13.43;;;9.43;;
50585;SDS011;36542;51.700;8.846;2022-10-26T05:03:50;15.90;;;9.30;;
50585;SDS011;36542;51.700;8.846;2022-10-26T05:06:17;13.90;;;9.27;;
50585;SDS011;36542;51.700;8.846;2022-10-26T05:08:43;14.30;;;9.43;;
50585;SDS011;36542;51.700;8.846;2022-10-26T05:11:08;18.87;;;9.13;;
50585;SDS011;36542;51.700;8.846;2022-10-26T05:13:34;18.23;;;10.40;;
50585;SDS011;36542;51.700;8.846;2022-10-26T05:16:00;13.00;;;8.57;;
50585;SDS011;36542;51.700;8.846;2022-10-26T05:18:25;15.83;;;9.27;;
50585;SDS011;36542;51.700;8.846;2022-10-26T05:20:51;17.97;;;10.17;;
50585;SDS011;36542;51.700;8.846;2022-10-26T05:23:17;19.03;;;10.13;;
50585;SDS011;36542;51.700;8.846;2022-10-26T05:25:43;15.47;;;9.87;;
50585;SDS011;36542;51.700;8.846;2022-10-26T05:28:10;17.77;;;9.10;;
50585;SDS011;36542;51.700;8.846;2022-10-26T05:30:37;15.90;;;9.20;;
50585;SDS011;36542;51.700;8.846;2022-10-26T05:33:03;14.20;;;8.70;;
50585;SDS011;36542;51.700;8.846;2022-10-26T05:35:30;14.40;;;9.40;;
50585;SDS011;36542;51.700;8.846;2022-10-26T05:37:56;13.87;;;9.07;;
50585;SDS011;36542;51.700;8.846;2022-10-26T05:40:22;14.40;;;9.57;;
50585;SDS011;36542;51.700;8.846;2022-10-26T05:42:48;16.63;;;9.50;;
50585;SDS011;36542;51.700;8.846;2022-10-26T05:45:14;12.77;;;9.00;;
50585;SDS011;36542;51.700;8.846;2022-10-26T05:47:42;16.60;;;8.47;;
50585;SDS011;36542;51.700;8.846;2022-10-26T05:50:09;17.67;;;9.93;;
50585;SDS011;36542;51.700;8.846;2022-10-26T05:52:39;16.43;;;9.77;;
50585;SDS011;36542;51.700;8.846;2022-10-26T05:55:06;18.13;;;9.33;;
50585;SDS011;36542;51.700;8.846;2022-10-26T05:57:32;17.50;;;9.90;;
50585;SDS011;36542;51.700;8.846;2022-10-26T05:59:58;14.27;;;9.73;;
50585;SDS011;36542;51.700;8.846;2022-10-26T06:05:19;14.20;;;9.00;;
50585;SDS011;36542;51.700;8.846;2022-10-26T06:07:47;15.10;;;9.33;;
50585;SDS011;36542;51.700;8.846;2022-10-26T06:10:13;14.37;;;8.50;;
50585;SDS011;36542;51.700;8.846;2022-10-26T06:12:39;13.53;;;8.67;;
50585;SDS011;36542;51.700;8.846;2022-10-26T06:15:05;18.40;;;9.90;;
50585;SDS011;36542;51.700;8.846;2022-10-26T06:17:36;20.63;;;11.27;;
50585;SDS011;36542;51.700;8.846;2022-10-26T06:31:17;17.77;;;10.17;;
50585;SDS011;36542;51.700;8.846;2022-10-26T06:33:43;17.23;;;10.30;;
50585;SDS011;36542;51.700;8.846;2022-10-26T06:38:42;16.20;;;11.30;;
50585;SDS011;36542;51.700;8.846;2022-10-26T06:41:09;18.83;;;10.80;;
50585;SDS011;36542;51.700;8.846;2022-10-26T06:43:39;14.43;;;9.97;;
50585;SDS011;36542;51.700;8.846;2022-10-26T06:46:24;16.80;;;9.97;;
50585;SDS011;36542;51.700;8.846;2022-10-26T06:49:22;18.07;;;9.87;;
50585;SDS011;36542;51.700;8.846;2022-10-26T06:52:02;14.70;;;8.80;;
50585;SDS011;36542;51.700;8.846;2022-10-26T06:54:44;13.23;;;9.73;;
50585;SDS011;36542;51.700;8.846;2022-10-26T06:57:17;20.33;;;9.67;;
50585;SDS011;36542;51.700;8.846;2022-10-26T06:59:52;14.43;;;8.30;;
50585;SDS011;36542;51.700;8.846;2022-10-26T07:02:22;15.27;;;8.87;;
50585;SDS011;36542;51.700;8.846;2022-10-26T07:04:48;16.80;;;9.40;;
50585;SDS011;36542;51.700;8.846;2022-10-26T07:07:14;16.70;;;9.70;;
50585;SDS011;36542;51.700;8.846;2022-10-26T07:09:43;18.40;;;9.30;;
50585;SDS011;36542;51.700;8.846;2022-10-26T07:12:08;15.83;;;8.83;;
50585;SDS011;36542;51.700;8.846;2022-10-26T07:14:34;12.40;;;8.00;;
50585;SDS011;36542;51.700;8.846;2022-10-26T07:16:59;12.87;;;8.53;;
50585;SDS011;36542;51.700;8.846;2022-10-26T07:19:25;14.73;;;8.50;;
50585;SDS011;36542;51.700;8.846;2022-10-26T07:21:54;13.27;;;8.33;;
50585;SDS011;36542;51.700;8.846;2022-10-26T07:24:21;12.43;;;7.87;;
50585;SDS011;36542;51.700;8.846;2022-10-26T07:26:47;13.77;;;8.10;;
50585;SDS011;36542;51.700;8.846;2022-10-26T07:29:13;15.50;;;8.10;;
50585;SDS011;36542;51.700;8.846;2022-10-26T07:31:40;14.43;;;8.20;;
50585;SDS011;36542;51.700;8.846;2022-10-26T07:34:06;13.60;;;8.20;;
50585;SDS011;36542;51.700;8.846;2022-10-26T07:36:31;13.00;;;8.60;;
50585;SDS011;36542;51.700;8.846;2022-10-26T07:38:57;14.70;;;8.57;;
50585;SDS011;36542;51.700;8.846;2022-10-26T07:41:23;11.27;;;7.30;;
50585;SDS011;36542;51.700;8.846;2022-10-26T07:43:48;15.60;;;8.27;;
50585;SDS011;36542;51.700;8.846;2022-10-26T07:46:14;14.53;;;8.23;;
50585;SDS011;36542;51.700;8.846;2022-10-26T07:48:41;14.90;;;7.33;;
50585;SDS011;36542;51.700;8.846;2022-10-26T07:51:06;12.30;;;8.00;;
50585;SDS011;36542;51.700;8.846;2022-10-26T07:53:32;10.60;;;7.00;;
50585;SDS011;36542;51.700;8.846;2022-10-26T07:55:58;10.77;;;6.70;;
50585;SDS011;36542;51.700;8.846;2022-10-26T07:58:23;10.47;;;5.70;;
50585;SDS011;36542;51.700;8.846;2022-10-26T08:00:50;13.30;;;6.20;;
50585;SDS011;36542;51.700;8.846;2022-10-26T08:03:16;7.93;;;5.67;;
50585;SDS011;36542;51.700;8.846;2022-10-26T08:05:44;9.20;;;5.83;;
50585;SDS011;36542;51.700;8.846;2022-10-26T08:08:11;9.53;;;5.60;;
50585;SDS011;36542;51.700;8.846;2022-10-26T08:10:40;12.80;;;5.40;;
50585;SDS011;36542;51.700;8.846;2022-10-26T08:13:07;8.03;;;5.30;;
50585;SDS011;36542;51.700;8.846;2022-10-26T08:15:33;10.97;;;5.73;;
50585;SDS011;36542;51.700;8.846;2022-10-26T08:17:58;8.53;;;4.93;;
50585;SDS011;36542;51.700;8.846;2022-10-26T08:20:24;9.97;;;5.10;;
50585;SDS011;36542;51.700;8.846;2022-10-26T08:22:50;9.67;;;4.87;;
50585;SDS011;36542;51.700;8.846;2022-10-26T08:25:16;10.77;;;4.80;;
50585;SDS011;36542;51.700;8.846;2022-10-26T08:27:42;6.93;;;4.73;;
50585;SDS011;36542;51.700;8.846;2022-10-26T08:30:08;8.87;;;4.70;;
50585;SDS011;36542;51.700;8.846;2022-10-26T08:32:33;8.47;;;4.47;;
50585;SDS011;36542;51.700;8.846;2022-10-26T08:34:59;11.10;;;5.03;;
50585;SDS011;36542;51.700;8.846;2022-10-26T08:37:25;8.70;;;5.03;;
50585;SDS011;36542;51.700;8.846;2022-10-26T08:39:51;12.10;;;4.37;;
50585;SDS011;36542;51.700;8.846;2022-10-26T08:45:17;7.03;;;4.70;;
50585;SDS011;36542;51.700;8.846;2022-10-26T08:48:03;9.20;;;5.00;;
50585;SDS011;36542;51.700;8.846;2022-10-26T08:50:36;8.40;;;4.87;;
50585;SDS011;36542;51.700;8.846;2022-10-26T08:53:13;15.63;;;5.10;;
50585;SDS011;36542;51.700;8.846;2022-10-26T08:55:46;9.53;;;5.20;;
50585;SDS011;36542;51.700;8.846;2022-10-26T08:58:19;9.30;;;4.90;;
50585;SDS011;36542;51.700;8.846;2022-10-26T09:00:49;12.43;;;5.80;;
50585;SDS011;36542;51.700;8.846;2022-10-26T09:03:17;6.70;;;4.27;;
50585;SDS011;36542;51.700;8.846;2022-10-26T09:11:56;8.07;;;4.13;;
50585;SDS011;36542;51.700;8.846;2022-10-26T09:20:31;9.37;;;5.07;;
50585;SDS011;36542;51.700;8.846;2022-10-26T09:23:12;10.57;;;5.33;;
50585;SDS011;36542;51.700;8.846;2022-10-26T09:26:00;7.00;;;4.67;;
50585;SDS011;36542;51.700;8.846;2022-10-26T09:28:27;7.93;;;4.33;;
50585;SDS011;36542;51.700;8.846;2022-10-26T09:30:58;6.57;;;3.70;;
50585;SDS011;36542;51.700;8.846;2022-10-26T09:33:25;8.00;;;3.73;;
50585;SDS011;36542;51.700;8.846;2022-10-26T09:38:41;8.80;;;3.57;;
50585;SDS011;36542;51.700;8.846;2022-10-26T09:42:00;8.80;;;3.03;;
50585;SDS011;36542;51.700;8.846;2022-10-26T09:46:49;8.03;;;3.20;;
50585;SDS011;36542;51.700;8.846;2022-10-26T09:49:21;6.23;;;3.13;;
50585;SDS011;36542;51.700;8.846;2022-10-26T09:51:55;7.03;;;3.53;;
50585;SDS011;36542;51.700;8.846;2022-10-26T09:54:20;7.77;;;3.30;;
50585;SDS011;36542;51.700;8.846;2022-10-26T09:56:47;6.00;;;2.87;;
50585;SDS011;36542;51.700;8.846;2022-10-26T09:59:17;11.03;;;6.30;;
50585;SDS011;36542;51.700;8.846;2022-10-26T10:01:46;12.10;;;2.97;;
50585;SDS011;36542;51.700;8.846;2022-10-26T10:06:37;7.43;;;4.77;;
50585;SDS011;36542;51.700;8.846;2022-10-26T10:09:08;5.93;;;2.70;;
50585;SDS011;36542;51.700;8.846;2022-10-26T10:14:21;12.80;;;10.47;;
50585;SDS011;36542;51.700;8.846;2022-10-26T10:16:52;10.03;;;9.00;;
50585;SDS011;36542;51.700;8.846;2022-10-26T10:19:23;3.77;;;3.07;;
50585;SDS011;36542;51.700;8.846;2022-10-26T10:22:00;6.73;;;2.43;;
50585;SDS011;36542;51.700;8.846;2022-10-26T10:24:33;6.20;;;4.23;;
50585;SDS011;36542;51.700;8.846;2022-10-26T10:29:27;6.88;;;2.92;;
50585;SDS011;36542;51.700;8.846;2022-10-26T10:31:55;5.50;;;2.03;;
50585;SDS011;36542;51.700;8.846;2022-10-26T10:34:25;4.23;;;2.47;;
50585;SDS011;36542;51.700;8.846;2022-10-26T10:36:53;11.97;;;2.50;;
50585;SDS011;36542;51.700;8.846;2022-10-26T10:39:26;6.30;;;3.53;;
50585;SDS011;36542;51.700;8.846;2022-10-26T10:42:01;7.60;;;2.87;;
50585;SDS011;36542;51.700;8.846;2022-10-26T10:44:28;8.80;;;2.80;;
50585;SDS011;36542;51.700;8.846;2022-10-26T10:47:00;11.73;;;6.10;;
50585;SDS011;36542;51.700;8.846;2022-10-26T10:49:27;11.00;;;7.40;;
50585;SDS011;36542;51.700;8.846;2022-10-26T10:51:54;8.17;;;2.37;;
50585;SDS011;36542;51.700;8.846;2022-10-26T10:54:54;9.03;;;3.90;;
50585;SDS011;36542;51.700;8.846;2022-10-26T10:57:22;7.13;;;3.77;;
50585;SDS011;36542;51.700;8.846;2022-10-26T11:00:13;4.33;;;2.63;;
50585;SDS011;36542;51.700;8.846;2022-10-26T11:05:38;6.10;;;2.75;;
50585;SDS011;36542;51.700;8.846;2022-10-26T11:08:08;4.57;;;2.38;;
50585;SDS011;36542;51.700;8.846;2022-10-26T11:10:46;8.18;;;2.55;;
50585;SDS011;36542;51.700;8.846;2022-10-26T11:13:19;7.70;;;2.65;;
50585;SDS011;36542;51.700;8.846;2022-10-26T11:15:50;4.45;;;1.80;;
50585;SDS011;36542;51.700;8.846;2022-10-26T11:18:26;5.38;;;1.95;;
50585;SDS011;36542;51.700;8.846;2022-10-26T11:24:34;8.90;;;2.00;;
50585;SDS011;36542;51.700;8.846;2022-10-26T11:26:54;9.98;;;1.98;;
50585;SDS011;36542;51.700;8.846;2022-10-26T11:29:32;5.07;;;1.88;;
50585;SDS011;36542;51.700;8.846;2022-10-26T11:32:18;4.67;;;1.93;;
50585;SDS011;36542;51.700;8.846;2022-10-26T11:37:59;6.73;;;2.30;;
50585;SDS011;36542;51.700;8.846;2022-10-26T11:43:38;4.93;;;3.00;;
50585;SDS011;36542;51.700;8.846;2022-10-26T11:46:14;6.63;;;3.53;;
50585;SDS011;36542;51.700;8.846;2022-10-26T11:54:29;5.67;;;2.93;;
50585;SDS011;36542;51.700;8.846;2022-10-26T11:57:32;5.93;;;2.40;;
50585;SDS011;36542;51.700;8.846;2022-10-26T12:00:00;7.93;;;2.30;;
50585;SDS011;36542;51.700;8.846;2022-10-26T12:02:30;4.30;;;2.60;;
50585;SDS011;36542;51.700;8.846;2022-10-26T12:07:30;5.00;;;3.40;;
50585;SDS011;36542;51.700;8.846;2022-10-26T12:09:57;6.90;;;3.97;;
50585;SDS011;36542;51.700;8.846;2022-10-26T12:12:28;12.40;;;6.50;;
50585;SDS011;36542;51.700;8.846;2022-10-26T12:23:26;7.80;;;2.40;;
50585;SDS011;36542;51.700;8.846;2022-10-26T12:26:19;4.27;;;2.23;;
50585;SDS011;36542;51.700;8.846;2022-10-26T12:33:59;4.17;;;2.50;;
50585;SDS011;36542;51.700;8.846;2022-10-26T12:39:26;4.30;;;1.87;;
50585;SDS011;36542;51.700;8.846;2022-10-26T12:41:58;3.17;;;2.30;;
50585;SDS011;36542;51.700;8.846;2022-10-26T12:47:01;6.90;;;2.33;;
50585;SDS011;36542;51.700;8.846;2022-10-26T12:58:07;4.23;;;2.77;;
50585;SDS011;36542;51.700;8.846;2022-10-26T13:00:50;6.00;;;3.00;;
50585;SDS011;36542;51.700;8.846;2022-10-26T13:03:27;6.50;;;2.57;;
50585;SDS011;36542;51.700;8.846;2022-10-26T13:06:24;5.80;;;3.00;;
50585;SDS011;36542;51.700;8.846;2022-10-26T13:09:16;6.70;;;2.27;;
50585;SDS011;36542;51.700;8.846;2022-10-26T13:11:46;6.40;;;2.13;;
50585;SDS011;36542;51.700;8.846;2022-10-26T13:14:18;9.43;;;2.50;;
50585;SDS011;36542;51.700;8.846;2022-10-26T13:16:46;5.53;;;1.97;;
50585;SDS011;36542;51.700;8.846;2022-10-26T13:19:22;6.27;;;2.20;;
50585;SDS011;36542;51.700;8.846;2022-10-26T13:21:57;10.37;;;2.60;;
50585;SDS011;36542;51.700;8.846;2022-10-26T13:24:23;9.75;;;2.35;;
50585;SDS011;36542;51.700;8.846;2022-10-26T13:29:32;7.77;;;2.47;;
50585;SDS011;36542;51.700;8.846;2022-10-26T13:32:17;7.73;;;2.53;;
50585;SDS011;36542;51.700;8.846;2022-10-26T13:34:44;5.90;;;2.20;;
50585;SDS011;36542;51.700;8.846;2022-10-26T13:37:17;5.87;;;2.40;;
50585;SDS011;36542;51.700;8.846;2022-10-26T13:39:48;9.47;;;2.87;;
50585;SDS011;36542;51.700;8.846;2022-10-26T13:42:20;6.40;;;2.87;;
50585;SDS011;36542;51.700;8.846;2022-10-26T13:44:53;6.50;;;2.20;;
50585;SDS011;36542;51.700;8.846;2022-10-26T13:47:24;7.10;;;2.53;;
50585;SDS011;36542;51.700;8.846;2022-10-26T13:50:22;4.53;;;2.50;;
50585;SDS011;36542;51.700;8.846;2022-10-26T13:52:51;7.97;;;2.57;;
50585;SDS011;36542;51.700;8.846;2022-10-26T13:55:37;10.47;;;2.33;;
50585;SDS011;36542;51.700;8.846;2022-10-26T13:58:40;7.70;;;2.60;;
50585;SDS011;36542;51.700;8.846;2022-10-26T14:01:12;9.10;;;2.57;;
50585;SDS011;36542;51.700;8.846;2022-10-26T14:03:41;6.93;;;2.17;;
50585;SDS011;36542;51.700;8.846;2022-10-26T14:08:48;4.20;;;2.20;;
50585;SDS011;36542;51.700;8.846;2022-10-26T14:11:19;6.73;;;2.83;;
50585;SDS011;36542;51.700;8.846;2022-10-26T14:13:48;8.67;;;2.13;;
50585;SDS011;36542;51.700;8.846;2022-10-26T14:16:15;7.27;;;2.50;;
50585;SDS011;36542;51.700;8.846;2022-10-26T14:18:44;6.03;;;2.60;;
50585;SDS011;36542;51.700;8.846;2022-10-26T14:21:13;10.17;;;2.60;;
50585;SDS011;36542;51.700;8.846;2022-10-26T14:23:56;8.50;;;2.50;;
50585;SDS011;36542;51.700;8.846;2022-10-26T14:26:29;4.60;;;2.37;;
50585;SDS011;36542;51.700;8.846;2022-10-26T14:29:02;6.43;;;2.57;;
50585;SDS011;36542;51.700;8.846;2022-10-26T14:31:29;9.47;;;2.40;;
50585;SDS011;36542;51.700;8.846;2022-10-26T14:33:57;4.70;;;2.03;;
50585;SDS011;36542;51.700;8.846;2022-10-26T14:36:47;8.30;;;2.20;;
50585;SDS011;36542;51.700;8.846;2022-10-26T14:39:15;7.20;;;2.40;;
50585;SDS011;36542;51.700;8.846;2022-10-26T14:41:49;6.27;;;2.30;;
50585;SDS011;36542;51.700;8.846;2022-10-26T14:44:17;4.70;;;2.27;;
50585;SDS011;36542;51.700;8.846;2022-10-26T14:46:44;4.87;;;2.33;;
50585;SDS011;36542;51.700;8.846;2022-10-26T14:49:23;3.67;;;2.47;;
50585;SDS011;36542;51.700;8.846;2022-10-26T14:51:57;6.63;;;2.20;;
50585;SDS011;36542;51.700;8.846;2022-10-26T14:54:27;6.53;;;2.10;;
50585;SDS011;36542;51.700;8.846;2022-10-26T14:56:54;4.93;;;2.37;;
50585;SDS011;36542;51.700;8.846;2022-10-26T14:59:27;6.60;;;2.20;;
50585;SDS011;36542;51.700;8.846;2022-10-26T15:02:01;9.23;;;2.50;;
50585;SDS011;36542;51.700;8.846;2022-10-26T15:04:40;6.37;;;2.57;;
50585;SDS011;36542;51.700;8.846;2022-10-26T15:07:20;7.83;;;2.50;;
50585;SDS011;36542;51.700;8.846;2022-10-26T15:09:51;3.37;;;2.10;;
50585;SDS011;36542;51.700;8.846;2022-10-26T15:14:55;5.97;;;2.53;;
50585;SDS011;36542;51.700;8.846;2022-10-26T15:17:26;7.90;;;2.60;;
50585;SDS011;36542;51.700;8.846;2022-10-26T15:20:03;10.40;;;2.50;;
50585;SDS011;36542;51.700;8.846;2022-10-26T15:22:30;6.17;;;2.40;;
50585;SDS011;36542;51.700;8.846;2022-10-26T15:24:57;7.40;;;2.57;;
50585;SDS011;36542;51.700;8.846;2022-10-26T15:27:29;12.40;;;2.77;;
50585;SDS011;36542;51.700;8.846;2022-10-26T15:30:28;5.77;;;2.00;;
50585;SDS011;36542;51.700;8.846;2022-10-26T15:32:51;7.73;;;2.53;;
50585;SDS011;36542;51.700;8.846;2022-10-26T15:37:47;6.77;;;3.13;;
50585;SDS011;36542;51.700;8.846;2022-10-26T15:40:14;6.33;;;2.53;;
50585;SDS011;36542;51.700;8.846;2022-10-26T15:42:40;8.23;;;2.30;;
50585;SDS011;36542;51.700;8.846;2022-10-26T15:45:18;5.93;;;2.30;;
50585;SDS011;36542;51.700;8.846;2022-10-26T15:47:46;6.63;;;2.30;;
50585;SDS011;36542;51.700;8.846;2022-10-26T15:50:13;5.23;;;2.70;;
50585;SDS011;36542;51.700;8.846;2022-10-26T15:52:41;9.50;;;2.73;;
50585;SDS011;36542;51.700;8.846;2022-10-26T15:55:06;10.40;;;3.10;;
50585;SDS011;36542;51.700;8.846;2022-10-26T15:57:33;9.87;;;3.60;;
50585;SDS011;36542;51.700;8.846;2022-10-26T15:59:58;9.13;;;4.47;;
50585;SDS011;36542;51.700;8.846;2022-10-26T16:02:24;10.80;;;4.60;;
50585;SDS011;36542;51.700;8.846;2022-10-26T16:04:49;7.07;;;3.07;;
50585;SDS011;36542;51.700;8.846;2022-10-26T16:07:15;7.10;;;3.63;;
50585;SDS011;36542;51.700;8.846;2022-10-26T16:09:42;8.17;;;3.17;;
50585;SDS011;36542;51.700;8.846;2022-10-26T16:12:11;10.27;;;2.80;;
50585;SDS011;36542;51.700;8.846;2022-10-26T16:14:37;7.77;;;3.80;;
50585;SDS011;36542;51.700;8.846;2022-10-26T16:17:04;10.40;;;3.33;;
50585;SDS011;36542;51.700;8.846;2022-10-26T16:19:31;8.07;;;2.80;;
50585;SDS011;36542;51.700;8.846;2022-10-26T16:21:57;10.37;;;4.80;;
50585;SDS011;36542;51.700;8.846;2022-10-26T16:24:23;8.10;;;4.87;;
50585;SDS011;36542;51.700;8.846;2022-10-26T16:26:51;22.83;;;15.93;;
50585;SDS011;36542;51.700;8.846;2022-10-26T16:29:16;24.23;;;16.53;;
50585;SDS011;36542;51.700;8.846;2022-10-26T16:31:43;13.37;;;9.83;;
50585;SDS011;36542;51.700;8.846;2022-10-26T16:34:09;11.67;;;8.17;;
50585;SDS011;36542;51.700;8.846;2022-10-26T16:36:35;9.17;;;5.97;;
50585;SDS011;36542;51.700;8.846;2022-10-26T16:39:02;9.93;;;5.53;;
50585;SDS011;36542;51.700;8.846;2022-10-26T16:41:27;6.73;;;4.00;;
50585;SDS011;36542;51.700;8.846;2022-10-26T16:43:54;8.50;;;4.33;;
50585;SDS011;36542;51.700;8.846;2022-10-26T16:46:20;6.97;;;4.30;;
50585;SDS011;36542;51.700;8.846;2022-10-26T16:48:47;10.07;;;4.17;;
50585;SDS011;36542;51.700;8.846;2022-10-26T16:51:23;8.47;;;4.30;;
50585;SDS011;36542;51.700;8.846;2022-10-26T16:53:51;11.07;;;4.70;;
50585;SDS011;36542;51.700;8.846;2022-10-26T16:56:19;5.57;;;4.87;;
50585;SDS011;36542;51.700;8.846;2022-10-26T16:58:46;10.30;;;4.13;;
50585;SDS011;36542;51.700;8.846;2022-10-26T17:01:13;9.20;;;4.50;;
50585;SDS011;36542;51.700;8.846;2022-10-26T17:03:43;9.00;;;4.20;;
50585;SDS011;36542;51.700;8.846;2022-10-26T17:06:10;8.47;;;4.20;;
50585;SDS011;36542;51.700;8.846;2022-10-26T17:08:36;7.20;;;4.33;;